Time;durP1;ratioP1;P1;durP2;ratioP2;P2;SDS_P1;SDS_P2;PMS_P1;PMS_P2;Temp;Humidity;BMP_temperature;BMP_pressure;BME280_temperature;BME280_humidity;BME280_pressure;Samples;Min_cycle;Max_cycle;Signal;HPM_P1;HPM_P2
2021/09/12 00:00:05;;;;;;;3.58;2.72;;;;;;;;;;5055181;28;20767;-71
2021/09/12 00:02:30;;;;;;;4.40;2.60;;;;;;;;;;5051674;28;20104;-72
2021/09/12 00:04:56;;;;;;;4.83;2.80;;;;;;;;;;5048787;28;20109;-71
2021/09/12 00:07:21;;;;;;;2.75;2.50;;;;;;;;;;5035830;28;20253;-71
2021/09/12 00:09:46;;;;;;;7.63;2.50;;;;;;;;;;5040895;28;20032;-72
2021/09/12 00:12:11;;;;;;;5.83;2.70;;;;;;;;;;5055215;28;20265;-72
2021/09/12 00:14:36;;;;;;;3.10;2.42;;;;;;;;;;5037999;28;20249;-72
2021/09/12 00:17:02;;;;;;;6.40;2.80;;;;;;;;;;5035908;28;20035;-71
2021/09/12 00:19:32;;;;;;;5.28;2.85;;;;;;;;;;5036196;28;20317;-71
2021/09/12 00:21:57;;;;;;;2.97;2.63;;;;;;;;;;5055172;28;20579;-72
2021/09/12 00:24:22;;;;;;;6.88;2.70;;;;;;;;;;5040058;28;20026;-72
2021/09/12 00:26:47;;;;;;;3.22;2.45;;;;;;;;;;5038571;28;20112;-72
2021/09/12 00:29:13;;;;;;;5.00;2.50;;;;;;;;;;5047589;28;20029;-72
2021/09/12 00:31:40;;;;;;;5.32;2.50;;;;;;;;;;5044873;28;20021;-72
2021/09/12 00:34:05;;;;;;;4.45;2.72;;;;;;;;;;5042064;28;20468;-71
2021/09/12 00:36:31;;;;;;;5.83;2.93;;;;;;;;;;5053942;28;20029;-72
2021/09/12 00:38:58;;;;;;;3.10;2.70;;;;;;;;;;5055565;28;20267;-72
2021/09/12 00:41:26;;;;;;;5.20;2.70;;;;;;;;;;5047856;28;20106;-72
2021/09/12 00:43:51;;;;;;;5.40;2.80;;;;;;;;;;5024432;28;20040;-71
2021/09/12 00:46:16;;;;;;;3.83;2.50;;;;;;;;;;5054450;28;20376;-71
2021/09/12 00:48:44;;;;;;;5.10;2.92;;;;;;;;;;5038743;28;20601;-71
2021/09/12 00:51:09;;;;;;;4.18;2.53;;;;;;;;;;5043213;28;20021;-72
2021/09/12 00:53:37;;;;;;;5.53;2.70;;;;;;;;;;5044152;28;20025;-72
2021/09/12 00:56:05;;;;;;;4.40;2.72;;;;;;;;;;5054688;28;20275;-71
2021/09/12 00:58:31;;;;;;;7.18;2.97;;;;;;;;;;5053381;28;20426;-72
2021/09/12 01:00:58;;;;;;;3.15;2.65;;;;;;;;;;5069511;28;20059;-72
2021/09/12 01:03:24;;;;;;;4.28;2.42;;;;;;;;;;5074881;28;20048;-72
2021/09/12 01:05:51;;;;;;;2.90;2.45;;;;;;;;;;5074797;28;20056;-72
2021/09/12 01:08:20;;;;;;;4.13;2.30;;;;;;;;;;5074823;28;20028;-71
2021/09/12 01:10:46;;;;;;;3.83;2.83;;;;;;;;;;5074622;28;20020;-71
2021/09/12 01:13:11;;;;;;;5.97;2.58;;;;;;;;;;5074163;28;20418;-72
2021/09/12 01:15:36;;;;;;;5.23;3.13;;;;;;;;;;5074100;28;20020;-71
2021/09/12 01:18:02;;;;;;;3.53;2.80;;;;;;;;;;5074519;28;20424;-71
2021/09/12 01:20:29;;;;;;;7.10;3.00;;;;;;;;;;5056797;28;20259;-72
2021/09/12 01:22:54;;;;;;;3.67;2.70;;;;;;;;;;5074825;28;20025;-71
2021/09/12 01:25:22;;;;;;;3.80;2.92;;;;;;;;;;5062742;28;20029;-72
2021/09/12 01:27:47;;;;;;;5.30;3.00;;;;;;;;;;5054811;28;20116;-72
2021/09/12 01:30:13;;;;;;;6.55;2.80;;;;;;;;;;5068778;28;20489;-71
2021/09/12 01:32:38;;;;;;;4.45;2.80;;;;;;;;;;5058255;28;20027;-72
2021/09/12 01:35:04;;;;;;;6.28;2.97;;;;;;;;;;5055219;28;20017;-71
2021/09/12 01:37:31;;;;;;;5.95;2.67;;;;;;;;;;5045430;28;20028;-71
2021/09/12 01:39:56;;;;;;;5.00;2.60;;;;;;;;;;5064533;28;20445;-71
2021/09/12 01:42:22;;;;;;;4.72;2.83;;;;;;;;;;5057947;28;20103;-71
2021/09/12 01:44:50;;;;;;;3.90;2.63;;;;;;;;;;5072796;28;20086;-71
2021/09/12 01:47:15;;;;;;;4.90;3.13;;;;;;;;;;5073432;28;20278;-73
2021/09/12 01:49:41;;;;;;;3.08;2.58;;;;;;;;;;5073397;28;20028;-72
2021/09/12 01:52:09;;;;;;;5.18;2.58;;;;;;;;;;5074215;28;20427;-71
2021/09/12 01:54:37;;;;;;;4.03;2.90;;;;;;;;;;5055651;28;20070;-72
2021/09/12 01:57:02;;;;;;;4.85;2.80;;;;;;;;;;5053660;28;20033;-72
2021/09/12 01:59:27;;;;;;;5.60;2.70;;;;;;;;;;5059517;28;21274;-71
2021/09/12 02:01:53;;;;;;;4.57;2.90;;;;;;;;;;5039240;28;20043;-71
2021/09/12 02:04:18;;;;;;;5.20;3.00;;;;;;;;;;5033921;28;20083;-71
2021/09/12 02:06:43;;;;;;;4.13;3.10;;;;;;;;;;5045539;28;20366;-71
2021/09/12 02:09:08;;;;;;;4.87;2.80;;;;;;;;;;5053798;28;20276;-71
2021/09/12 02:11:33;;;;;;;4.18;3.25;;;;;;;;;;5053798;28;20549;-71
2021/09/12 02:14:00;;;;;;;5.07;2.80;;;;;;;;;;5054009;28;20016;-72
2021/09/12 02:16:25;;;;;;;8.93;2.95;;;;;;;;;;5035058;28;20331;-71
2021/09/12 02:18:50;;;;;;;4.85;3.10;;;;;;;;;;5033841;28;20152;-72
2021/09/12 02:21:15;;;;;;;4.00;2.80;;;;;;;;;;5033980;28;20025;-72
2021/09/12 02:23:41;;;;;;;3.65;3.00;;;;;;;;;;5037659;28;20107;-71
2021/09/12 02:26:07;;;;;;;4.65;3.25;;;;;;;;;;5036271;28;20036;-71
2021/09/12 02:28:32;;;;;;;5.53;3.42;;;;;;;;;;5043852;28;20021;-71
2021/09/12 02:30:57;;;;;;;4.50;3.10;;;;;;;;;;5035803;28;20060;-72
2021/09/12 02:33:24;;;;;;;4.67;2.77;;;;;;;;;;5053485;28;20017;-71
2021/09/12 02:35:50;;;;;;;5.53;3.40;;;;;;;;;;5053791;28;20259;-71
2021/09/12 02:38:15;;;;;;;5.35;3.47;;;;;;;;;;5053045;28;20013;-71
2021/09/12 02:40:40;;;;;;;6.07;3.28;;;;;;;;;;5052669;28;20103;-71
2021/09/12 02:43:09;;;;;;;4.60;3.13;;;;;;;;;;5053543;28;20408;-71
2021/09/12 02:45:34;;;;;;;3.60;3.30;;;;;;;;;;5053591;28;20029;-71
2021/09/12 02:48:02;;;;;;;3.55;3.25;;;;;;;;;;5052767;28;20078;-71
2021/09/12 02:50:28;;;;;;;4.95;3.40;;;;;;;;;;5052003;28;20089;-71
2021/09/12 02:52:53;;;;;;;4.00;2.65;;;;;;;;;;5052929;28;20017;-72
2021/09/12 02:55:18;;;;;;;6.32;2.95;;;;;;;;;;5053171;28;20437;-71
2021/09/12 02:57:43;;;;;;;7.63;3.20;;;;;;;;;;5043039;28;20022;-71
2021/09/12 03:00:09;;;;;;;7.03;3.20;;;;;;;;;;5061082;28;20044;-71
2021/09/12 03:02:37;;;;;;;3.38;2.80;;;;;;;;;;5075137;28;20278;-71
2021/09/12 03:05:03;;;;;;;3.58;2.70;;;;;;;;;;5058555;28;20012;-72
2021/09/12 03:07:28;;;;;;;5.50;2.92;;;;;;;;;;5058519;28;20020;-72
2021/09/12 03:09:53;;;;;;;5.50;2.90;;;;;;;;;;5075534;28;20462;-71
2021/09/12 03:12:18;;;;;;;3.83;2.77;;;;;;;;;;5061285;28;20719;-71
2021/09/12 03:14:44;;;;;;;3.15;2.65;;;;;;;;;;5060664;28;20359;-72
2021/09/12 03:17:09;;;;;;;3.90;2.67;;;;;;;;;;5076747;28;20025;-72
2021/09/12 03:19:35;;;;;;;3.80;2.72;;;;;;;;;;5076294;28;20083;-71
2021/09/12 03:22:00;;;;;;;2.95;2.65;;;;;;;;;;5076776;28;20029;-72
2021/09/12 03:24:25;;;;;;;4.35;2.60;;;;;;;;;;5076946;28;20103;-71
2021/09/12 03:26:50;;;;;;;6.03;2.57;;;;;;;;;;5071570;28;20449;-71
2021/09/12 03:29:16;;;;;;;4.03;2.63;;;;;;;;;;5076568;28;20317;-72
2021/09/12 03:31:41;;;;;;;3.17;2.42;;;;;;;;;;5067540;28;20255;-72
2021/09/12 03:34:06;;;;;;;4.93;2.70;;;;;;;;;;5076622;28;20433;-71
2021/09/12 03:36:31;;;;;;;4.50;2.63;;;;;;;;;;5059869;28;20255;-72
2021/09/12 03:38:57;;;;;;;4.73;2.60;;;;;;;;;;5075858;28;20278;-71
2021/09/12 03:41:22;;;;;;;5.55;2.78;;;;;;;;;;5069179;28;20270;-71
2021/09/12 03:43:47;;;;;;;3.00;2.70;;;;;;;;;;5063828;28;20130;-71
2021/09/12 03:46:12;;;;;;;2.80;2.53;;;;;;;;;;5059208;28;20325;-71
2021/09/12 03:48:37;;;;;;;4.43;3.05;;;;;;;;;;5056138;28;20314;-70
2021/09/12 03:51:03;;;;;;;3.90;2.87;;;;;;;;;;5075839;28;20027;-72
2021/09/12 03:53:28;;;;;;;3.13;2.40;;;;;;;;;;5076207;28;20582;-71
2021/09/12 03:55:55;;;;;;;3.70;2.67;;;;;;;;;;5075886;28;20070;-71
2021/09/12 03:58:23;;;;;;;3.92;2.65;;;;;;;;;;5073129;28;20637;-72
2021/09/12 04:00:48;;;;;;;5.47;2.72;;;;;;;;;;5072930;28;20159;-72
2021/09/12 04:03:14;;;;;;;2.80;2.50;;;;;;;;;;5061852;28;20021;-72
2021/09/12 04:05:39;;;;;;;4.75;2.88;;;;;;;;;;5075238;28;20278;-71
2021/09/12 04:08:04;;;;;;;3.53;2.42;;;;;;;;;;5076073;28;20020;-72
2021/09/12 04:10:30;;;;;;;3.88;2.42;;;;;;;;;;5076107;28;20012;-71
2021/09/12 04:12:55;;;;;;;3.27;2.47;;;;;;;;;;5074959;28;20020;-71
2021/09/12 04:15:20;;;;;;;5.05;2.60;;;;;;;;;;5076037;28;20316;-71
2021/09/12 04:17:45;;;;;;;3.80;2.38;;;;;;;;;;5057710;28;20020;-71
2021/09/12 04:20:11;;;;;;;3.73;2.50;;;;;;;;;;5075543;28;20126;-71
2021/09/12 04:22:36;;;;;;;4.07;2.55;;;;;;;;;;5058979;28;20707;-71
2021/09/12 04:25:02;;;;;;;4.33;2.80;;;;;;;;;;5074747;28;20031;-71
2021/09/12 04:27:27;;;;;;;6.18;2.53;;;;;;;;;;5075548;28;20243;-72
2021/09/12 04:29:52;;;;;;;2.65;2.45;;;;;;;;;;5058694;28;20039;-72
2021/09/12 04:32:20;;;;;;;3.67;2.45;;;;;;;;;;5055587;28;20029;-71
2021/09/12 04:34:47;;;;;;;6.47;2.58;;;;;;;;;;5058009;28;20032;-72
2021/09/12 04:37:13;;;;;;;8.23;2.95;;;;;;;;;;5075160;28;20384;-71
2021/09/12 04:39:38;;;;;;;3.17;2.40;;;;;;;;;;5075308;28;20039;-71
2021/09/12 04:42:06;;;;;;;7.23;2.80;;;;;;;;;;5063644;28;20020;-72
2021/09/12 04:44:31;;;;;;;4.28;2.38;;;;;;;;;;5072588;28;20275;-72
2021/09/12 04:46:56;;;;;;;4.17;2.30;;;;;;;;;;5065000;28;20020;-71
2021/09/12 04:49:21;;;;;;;4.53;2.75;;;;;;;;;;5074620;28;20266;-71
2021/09/12 04:51:49;;;;;;;4.23;2.63;;;;;;;;;;5068811;28;20041;-72
2021/09/12 04:54:16;;;;;;;5.47;2.85;;;;;;;;;;5064227;28;20335;-71
2021/09/12 04:56:41;;;;;;;4.18;2.60;;;;;;;;;;5068073;28;20036;-71
2021/09/12 04:59:07;;;;;;;4.10;2.65;;;;;;;;;;5047037;28;20441;-71
2021/09/12 05:01:34;;;;;;;4.67;2.70;;;;;;;;;;5065040;28;20154;-72
2021/09/12 05:04:00;;;;;;;4.03;2.90;;;;;;;;;;5067162;28;20281;-71
2021/09/12 05:06:25;;;;;;;5.00;2.97;;;;;;;;;;5067415;28;20448;-67
2021/09/12 05:08:50;;;;;;;4.03;2.50;;;;;;;;;;5059783;28;20016;-66
2021/09/12 05:11:15;;;;;;;7.93;3.20;;;;;;;;;;5066950;28;20161;-66
2021/09/12 05:13:43;;;;;;;5.83;3.03;;;;;;;;;;5063267;28;20694;-66
2021/09/12 05:16:10;;;;;;;7.60;3.05;;;;;;;;;;5071873;28;20313;-67
2021/09/12 05:18:35;;;;;;;3.55;2.70;;;;;;;;;;5065662;28;20032;-66
2021/09/12 05:21:03;;;;;;;6.03;2.87;;;;;;;;;;5059830;28;20016;-77
2021/09/12 05:23:29;;;;;;;9.00;2.67;;;;;;;;;;5065977;28;20301;-77
2021/09/12 05:25:54;;;;;;;5.15;2.60;;;;;;;;;;5074032;28;20024;-77
2021/09/12 05:28:22;;;;;;;14.00;3.00;;;;;;;;;;5071500;28;20020;-77
2021/09/12 05:30:48;;;;;;;3.47;2.47;;;;;;;;;;5074414;28;20016;-77
2021/09/12 05:33:13;;;;;;;3.83;2.72;;;;;;;;;;5073931;28;20073;-77
2021/09/12 05:35:39;;;;;;;5.75;2.60;;;;;;;;;;5073887;28;20068;-76
2021/09/12 05:38:04;;;;;;;4.82;2.85;;;;;;;;;;5058768;28;20090;-76
2021/09/12 05:40:30;;;;;;;5.78;2.50;;;;;;;;;;5070952;28;20341;-75
2021/09/12 05:42:57;;;;;;;4.68;2.30;;;;;;;;;;5049933;28;20406;-77
2021/09/12 05:45:23;;;;;;;4.82;2.53;;;;;;;;;;5070760;28;20048;-76
2021/09/12 05:47:50;;;;;;;5.43;2.80;;;;;;;;;;5072970;28;20055;-76
2021/09/12 05:50:18;;;;;;;5.15;2.92;;;;;;;;;;5073322;28;20273;-76
2021/09/12 05:52:48;;;;;;;6.35;3.33;;;;;;;;;;5062776;28;20074;-76
2021/09/12 05:55:13;;;;;;;4.35;2.88;;;;;;;;;;5073788;28;20009;-76
2021/09/12 05:57:38;;;;;;;6.00;2.85;;;;;;;;;;5051822;28;20360;-76
2021/09/12 06:00:07;;;;;;;5.78;3.35;;;;;;;;;;5073482;28;20071;-76
2021/09/12 06:02:32;;;;;;;4.97;3.08;;;;;;;;;;5072931;28;20024;-76
2021/09/12 06:05:02;;;;;;;4.20;3.20;;;;;;;;;;5068097;28;20077;-76
2021/09/12 06:07:29;;;;;;;3.55;2.50;;;;;;;;;;5063393;28;20009;-76
2021/09/12 06:09:54;;;;;;;4.90;3.15;;;;;;;;;;5073777;28;20022;-78
2021/09/12 06:12:19;;;;;;;5.23;2.67;;;;;;;;;;5057062;28;20028;-78
2021/09/12 06:14:44;;;;;;;3.63;2.80;;;;;;;;;;5069025;28;20271;-78
2021/09/12 06:17:09;;;;;;;3.93;2.80;;;;;;;;;;5053627;28;20263;-78
2021/09/12 06:19:35;;;;;;;4.50;3.10;;;;;;;;;;5065088;28;20691;-78
2021/09/12 06:22:01;;;;;;;3.78;2.88;;;;;;;;;;5066472;28;20023;-78
2021/09/12 06:24:26;;;;;;;7.47;3.47;;;;;;;;;;5070332;28;20016;-78
2021/09/12 06:26:52;;;;;;;4.97;3.00;;;;;;;;;;5058299;28;20037;-78
2021/09/12 06:29:17;;;;;;;4.78;3.10;;;;;;;;;;5064560;28;20318;-77
2021/09/12 06:31:42;;;;;;;4.65;3.15;;;;;;;;;;5065609;28;20112;-76
2021/09/12 06:34:07;;;;;;;4.20;3.10;;;;;;;;;;5072773;28;20016;-76
2021/09/12 06:36:33;;;;;;;4.70;2.92;;;;;;;;;;5063294;28;20263;-76
2021/09/12 06:38:58;;;;;;;5.00;3.20;;;;;;;;;;5077877;28;20016;-75
2021/09/12 06:41:23;;;;;;;4.90;2.90;;;;;;;;;;5078885;28;20270;-76
2021/09/12 06:43:48;;;;;;;5.47;3.03;;;;;;;;;;5067028;28;20263;-75
2021/09/12 06:46:13;;;;;;;5.00;2.80;;;;;;;;;;5076187;28;20124;-75
2021/09/12 06:48:39;;;;;;;3.42;2.78;;;;;;;;;;5080195;28;20052;-75
2021/09/12 06:51:04;;;;;;;3.78;2.80;;;;;;;;;;5079906;28;20020;-75
2021/09/12 06:53:29;;;;;;;5.13;2.67;;;;;;;;;;5080232;28;20557;-75
2021/09/12 06:55:54;;;;;;;4.63;3.03;;;;;;;;;;5080111;28;20624;-75
2021/09/12 06:58:19;;;;;;;4.32;2.75;;;;;;;;;;5075542;28;20686;-61
2021/09/12 07:00:45;;;;;;;3.60;2.93;;;;;;;;;;5064023;28;20089;-69
2021/09/12 07:03:10;;;;;;;6.72;3.30;;;;;;;;;;5047856;28;20584;-67
2021/09/12 07:05:35;;;;;;;4.40;3.03;;;;;;;;;;5031251;28;20091;-67
2021/09/12 07:08:00;;;;;;;6.10;3.10;;;;;;;;;;5054029;28;20031;-68
2021/09/12 07:10:26;;;;;;;5.03;2.80;;;;;;;;;;5054847;28;20533;-68
2021/09/12 07:12:53;;;;;;;3.20;2.50;;;;;;;;;;5056756;28;20811;-68
2021/09/12 07:15:18;;;;;;;7.22;4.95;;;;;;;;;;5050877;28;20066;-67
2021/09/12 07:17:44;;;;;;;8.43;5.50;;;;;;;;;;5050442;28;20033;-68
2021/09/12 07:20:10;;;;;;;3.72;2.72;;;;;;;;;;5038090;28;20052;-67
2021/09/12 07:22:35;;;;;;;9.27;2.83;;;;;;;;;;5057705;28;20032;-68
2021/09/12 07:25:00;;;;;;;7.07;2.85;;;;;;;;;;5059813;28;20055;-67
2021/09/12 07:27:25;;;;;;;6.55;2.90;;;;;;;;;;5059345;28;20032;-68
2021/09/12 07:29:51;;;;;;;4.17;2.73;;;;;;;;;;5045757;28;20100;-68
2021/09/12 07:32:16;;;;;;;2.83;2.40;;;;;;;;;;5040106;28;20347;-67
2021/09/12 07:34:43;;;;;;;5.20;2.80;;;;;;;;;;5057598;28;20033;-68
2021/09/12 07:37:11;;;;;;;5.53;5.00;;;;;;;;;;5058582;28;20718;-74
2021/09/12 07:39:36;;;;;;;4.97;3.08;;;;;;;;;;5046794;28;20033;-75
2021/09/12 07:42:01;;;;;;;7.28;4.13;;;;;;;;;;5051228;28;20087;-74
2021/09/12 07:44:27;;;;;;;6.25;4.00;;;;;;;;;;5036908;28;20025;-74
2021/09/12 07:46:54;;;;;;;6.72;3.70;;;;;;;;;;5051103;28;20036;-74
2021/09/12 07:49:20;;;;;;;5.03;3.30;;;;;;;;;;5048879;28;20029;-74
2021/09/12 07:51:47;;;;;;;4.13;2.90;;;;;;;;;;5052190;28;20009;-73
2021/09/12 07:54:13;;;;;;;5.82;3.55;;;;;;;;;;5050402;28;21254;-73
2021/09/12 07:56:40;;;;;;;5.97;4.10;;;;;;;;;;5049361;28;20040;-74
2021/09/12 07:59:06;;;;;;;4.50;3.90;;;;;;;;;;5046530;28;20604;-74
2021/09/12 08:01:31;;;;;;;7.57;4.30;;;;;;;;;;5050265;28;20059;-74
2021/09/12 08:03:57;;;;;;;8.68;3.88;;;;;;;;;;5044721;28;20470;-74
2021/09/12 08:06:23;;;;;;;6.78;4.00;;;;;;;;;;5040897;28;20074;-74
2021/09/12 08:08:48;;;;;;;6.00;4.28;;;;;;;;;;5055460;28;20060;-74
2021/09/12 08:11:13;;;;;;;5.53;3.67;;;;;;;;;;5055896;28;20352;-75
2021/09/12 08:13:38;;;;;;;4.67;3.47;;;;;;;;;;5045349;28;20021;-75
2021/09/12 08:16:04;;;;;;;5.85;3.78;;;;;;;;;;5050574;28;20251;-77
2021/09/12 08:18:29;;;;;;;5.93;4.03;;;;;;;;;;5049388;28;20020;-73
2021/09/12 08:20:54;;;;;;;4.95;4.10;;;;;;;;;;5036140;28;20369;-73
2021/09/12 08:23:20;;;;;;;6.57;3.83;;;;;;;;;;5051706;28;20032;-76
2021/09/12 08:25:46;;;;;;;5.90;4.57;;;;;;;;;;5048725;28;20029;-74
2021/09/12 08:28:11;;;;;;;4.25;3.70;;;;;;;;;;5050815;28;20021;-75
2021/09/12 08:30:36;;;;;;;5.80;4.35;;;;;;;;;;5051870;28;20021;-74
2021/09/12 08:33:10;;;;;;;6.32;4.20;;;;;;;;;;5030972;28;20059;-74
2021/09/12 08:35:35;;;;;;;7.68;4.72;;;;;;;;;;5050581;28;20380;-73
2021/09/12 08:38:03;;;;;;;8.17;4.63;;;;;;;;;;5047154;28;20017;-73
2021/09/12 08:40:30;;;;;;;7.28;4.28;;;;;;;;;;5048882;28;20275;-73
2021/09/12 08:42:55;;;;;;;6.13;3.88;;;;;;;;;;5053565;28;20048;-73
2021/09/12 08:45:22;;;;;;;7.87;5.10;;;;;;;;;;5050159;28;20045;-74
2021/09/12 08:47:48;;;;;;;8.82;5.47;;;;;;;;;;5053607;28;20386;-71
2021/09/12 08:50:13;;;;;;;7.82;5.65;;;;;;;;;;5055181;28;20112;-72
2021/09/12 08:52:38;;;;;;;10.10;5.45;;;;;;;;;;5037595;28;20433;-74
2021/09/12 08:55:06;;;;;;;7.43;5.72;;;;;;;;;;5055064;28;20052;-74
2021/09/12 08:57:32;;;;;;;14.43;5.57;;;;;;;;;;5054313;28;20031;-70
2021/09/12 08:59:57;;;;;;;10.43;4.82;;;;;;;;;;5053238;28;20120;-79
2021/09/12 09:02:28;;;;;;;9.77;4.73;;;;;;;;;;5074766;28;20024;-79
2021/09/12 09:05:00;;;;;;;7.25;4.03;;;;;;;;;;5072361;28;20254;-78
2021/09/12 09:07:28;;;;;;;5.30;3.72;;;;;;;;;;5071459;28;20025;-79
2021/09/12 09:09:57;;;;;;;10.77;4.35;;;;;;;;;;5070592;28;20017;-77
2021/09/12 09:12:37;;;;;;;10.23;3.65;;;;;;;;;;5068301;28;20021;-73
2021/09/12 09:15:02;;;;;;;6.30;3.50;;;;;;;;;;5072176;28;20497;-73
2021/09/12 09:17:28;;;;;;;7.90;3.60;;;;;;;;;;5074166;28;20124;-72
2021/09/12 09:19:56;;;;;;;7.63;3.17;;;;;;;;;;5068623;28;20036;-73
2021/09/12 09:22:28;;;;;;;12.00;3.00;;;;;;;;;;5071636;28;20013;-72
2021/09/12 09:25:00;;;;;;;6.82;3.03;;;;;;;;;;5061783;28;20085;-73
2021/09/12 09:27:27;;;;;;;5.90;2.65;;;;;;;;;;5052091;28;20099;-73
2021/09/12 09:29:54;;;;;;;5.40;2.67;;;;;;;;;;5068552;28;20020;-73
2021/09/12 09:32:19;;;;;;;8.13;3.50;;;;;;;;;;5072334;28;20061;-73
2021/09/12 09:34:47;;;;;;;5.70;2.67;;;;;;;;;;5071612;28;20092;-73
2021/09/12 09:37:17;;;;;;;8.63;2.58;;;;;;;;;;5071616;28;20331;-73
2021/09/12 09:39:43;;;;;;;3.97;2.45;;;;;;;;;;5074018;28;20151;-73
2021/09/12 09:42:27;;;;;;;6.75;2.45;;;;;;;;;;5072357;28;20036;-73
2021/09/12 09:44:58;;;;;;;7.28;2.70;;;;;;;;;;5072674;28;20035;-74
2021/09/12 09:47:27;;;;;;;6.68;2.65;;;;;;;;;;5072276;28;20523;-73
2021/09/12 09:50:02;;;;;;;6.18;2.53;;;;;;;;;;5073565;28;20028;-74
2021/09/12 09:52:28;;;;;;;7.13;2.85;;;;;;;;;;5071779;28;20399;-74
2021/09/12 09:54:55;;;;;;;9.43;2.80;;;;;;;;;;5036033;28;20112;-74
2021/09/12 09:57:22;;;;;;;4.93;2.80;;;;;;;;;;5053826;28;20013;-74
2021/09/12 09:59:49;;;;;;;7.07;2.30;;;;;;;;;;5068403;28;20037;-73
2021/09/12 10:02:15;;;;;;;6.15;2.83;;;;;;;;;;5049405;28;20024;-74
2021/09/12 10:04:42;;;;;;;6.37;2.97;;;;;;;;;;5053627;28;20028;-74
2021/09/12 10:07:09;;;;;;;5.38;2.83;;;;;;;;;;5053493;28;20299;-73
2021/09/12 10:09:37;;;;;;;8.13;2.65;;;;;;;;;;5052789;28;20036;-73
2021/09/12 10:12:05;;;;;;;8.02;2.47;;;;;;;;;;5052881;28;20027;-74
2021/09/12 10:14:35;;;;;;;5.88;2.80;;;;;;;;;;5053369;28;20032;-74
2021/09/12 10:17:01;;;;;;;9.65;2.75;;;;;;;;;;5053072;28;20028;-75
2021/09/12 10:19:47;;;;;;;4.80;2.60;;;;;;;;;;5053683;28;20021;-74
2021/09/12 10:22:19;;;;;;;6.95;2.85;;;;;;;;;;5053044;28;20455;-74
2021/09/12 10:25:02;;;;;;;7.20;2.63;;;;;;;;;;5053450;28;20029;-74
2021/09/12 10:27:37;;;;;;;6.07;2.33;;;;;;;;;;5053029;28;20020;-75
2021/09/12 10:30:20;;;;;;;4.65;2.47;;;;;;;;;;5053308;28;20031;-75
2021/09/12 10:32:46;;;;;;;4.13;2.20;;;;;;;;;;5053256;28;20027;-74
2021/09/12 10:35:11;;;;;;;3.47;1.90;;;;;;;;;;5053576;28;20396;-75
2021/09/12 10:37:36;;;;;;;4.03;2.00;;;;;;;;;;5052813;28;20082;-75
2021/09/12 10:40:01;;;;;;;11.07;7.53;;;;;;;;;;5053370;28;20116;-74
2021/09/12 10:42:26;;;;;;;5.80;3.30;;;;;;;;;;5053463;28;20105;-74
2021/09/12 10:45:10;;;;;;;5.37;2.17;;;;;;;;;;5053534;28;20263;-74
2021/09/12 10:47:35;;;;;;;8.18;2.83;;;;;;;;;;5048852;28;20053;-74
2021/09/12 10:50:01;;;;;;;5.57;3.03;;;;;;;;;;5052825;28;20122;-74
2021/09/12 10:52:44;;;;;;;9.20;3.30;;;;;;;;;;5052903;28;20251;-74
2021/09/12 10:55:12;;;;;;;7.28;2.33;;;;;;;;;;5033185;28;20697;-74
2021/09/12 10:57:37;;;;;;;5.43;2.10;;;;;;;;;;5038376;28;20059;-73
2021/09/12 11:00:11;;;;;;;5.88;2.20;;;;;;;;;;5056656;28;20041;-74
2021/09/12 11:02:42;;;;;;;6.30;2.45;;;;;;;;;;5073429;28;20024;-75
2021/09/12 11:05:25;;;;;;;4.35;2.22;;;;;;;;;;5073808;28;20062;-75
2021/09/12 11:07:53;;;;;;;6.35;2.20;;;;;;;;;;5072369;28;20028;-75
2021/09/12 11:10:36;;;;;;;4.75;2.10;;;;;;;;;;5072944;28;20024;-74
2021/09/12 11:13:01;;;;;;;5.07;2.30;;;;;;;;;;5068348;28;20016;-74
2021/09/12 11:15:28;;;;;;;6.50;2.50;;;;;;;;;;5061916;28;20331;-74
2021/09/12 11:17:56;;;;;;;4.38;2.30;;;;;;;;;;5058372;28;20256;-75
2021/09/12 11:20:21;;;;;;;6.60;2.20;;;;;;;;;;5068895;28;20024;-76
2021/09/12 11:22:50;;;;;;;6.55;1.88;;;;;;;;;;5071248;28;20085;-75
2021/09/12 11:25:18;;;;;;;5.32;1.70;;;;;;;;;;5070052;28;20300;-74
2021/09/12 11:27:44;;;;;;;5.70;2.10;;;;;;;;;;5070639;28;20028;-74
2021/09/12 11:30:09;;;;;;;3.47;1.80;;;;;;;;;;5074423;28;20029;-76
2021/09/12 11:32:50;;;;;;;4.32;1.85;;;;;;;;;;5073473;28;20070;-74
2021/09/12 11:35:18;;;;;;;5.50;2.30;;;;;;;;;;5071299;28;20040;-70
2021/09/12 11:37:43;;;;;;;4.80;1.90;;;;;;;;;;5073773;28;20103;-74
2021/09/12 11:40:08;;;;;;;3.57;1.73;;;;;;;;;;5073641;28;20112;-74
2021/09/12 11:42:34;;;;;;;4.25;1.50;;;;;;;;;;5075679;28;20278;-75
2021/09/12 11:44:59;;;;;;;4.50;1.63;;;;;;;;;;5061305;28;20128;-73
2021/09/12 11:47:25;;;;;;;3.57;1.70;;;;;;;;;;5056507;28;20740;-74
2021/09/12 11:50:01;;;;;;;8.15;1.83;;;;;;;;;;5073416;28;20274;-75
2021/09/12 11:52:33;;;;;;;4.63;1.77;;;;;;;;;;5075361;28;20016;-74
2021/09/12 11:54:59;;;;;;;8.38;1.70;;;;;;;;;;5075321;28;20032;-74
2021/09/12 11:57:24;;;;;;;4.13;1.80;;;;;;;;;;5076228;28;20032;-73
2021/09/12 11:59:50;;;;;;;3.87;1.83;;;;;;;;;;5076009;28;20047;-74
2021/09/12 12:02:16;;;;;;;3.58;2.05;;;;;;;;;;5056205;28;20369;-73
2021/09/12 12:04:42;;;;;;;3.60;1.83;;;;;;;;;;5056256;28;20385;-75
2021/09/12 12:07:08;;;;;;;5.45;1.88;;;;;;;;;;5056208;28;20021;-74
2021/09/12 12:09:46;;;;;;;7.35;1.70;;;;;;;;;;5044214;28;20065;-74
2021/09/12 12:12:15;;;;;;;6.38;2.20;;;;;;;;;;5075881;28;20029;-74
2021/09/12 12:15:06;;;;;;;3.75;1.90;;;;;;;;;;5075203;28;20345;-74
2021/09/12 12:17:32;;;;;;;3.10;1.70;;;;;;;;;;5071769;28;20457;-74
2021/09/12 12:19:57;;;;;;;6.72;1.60;;;;;;;;;;5075723;28;20043;-75
2021/09/12 12:22:36;;;;;;;7.43;2.15;;;;;;;;;;5075103;28;20042;-75
2021/09/12 12:25:01;;;;;;;8.05;1.90;;;;;;;;;;5075940;28;20028;-76
2021/09/12 12:27:29;;;;;;;3.85;1.63;;;;;;;;;;5073728;28;20423;-75
2021/09/12 12:29:58;;;;;;;7.07;1.80;;;;;;;;;;5075028;28;20020;-75
2021/09/12 12:32:24;;;;;;;3.53;1.70;;;;;;;;;;5074227;28;20103;-75
2021/09/12 12:34:55;;;;;;;3.90;1.80;;;;;;;;;;5075304;28;20013;-77
2021/09/12 12:37:45;;;;;;;3.17;1.55;;;;;;;;;;5063012;28;20017;-74
2021/09/12 12:40:21;;;;;;;3.13;1.65;;;;;;;;;;5055487;28;20017;-77
2021/09/12 12:42:48;;;;;;;3.80;1.90;;;;;;;;;;5055445;28;20032;-78
2021/09/12 12:45:26;;;;;;;5.72;2.17;;;;;;;;;;5071045;28;20059;-80
2021/09/12 12:47:57;;;;;;;3.05;1.88;;;;;;;;;;5075092;28;20032;-81
2021/09/12 12:50:28;;;;;;;4.55;2.10;;;;;;;;;;5070087;28;20478;-78
2021/09/12 12:53:06;;;;;;;6.05;1.90;;;;;;;;;;5072456;28;20468;-81
2021/09/12 12:55:31;;;;;;;6.20;1.75;;;;;;;;;;5072928;28;20101;-80
2021/09/12 12:57:58;;;;;;;3.90;1.70;;;;;;;;;;5057345;28;20426;-77
2021/09/12 13:00:23;;;;;;;6.00;1.98;;;;;;;;;;5074215;28;20295;-75
2021/09/12 13:02:48;;;;;;;3.33;1.70;;;;;;;;;;5073959;28;20081;-77
2021/09/12 13:05:16;;;;;;;5.93;1.87;;;;;;;;;;5074675;28;20328;-79
2021/09/12 13:07:41;;;;;;;5.55;1.90;;;;;;;;;;5073967;28;20083;-74
2021/09/12 13:10:08;;;;;;;4.90;1.90;;;;;;;;;;5074664;28;20048;-77
2021/09/12 13:12:34;;;;;;;6.05;2.05;;;;;;;;;;5074611;28;20571;-78
2021/09/12 13:14:59;;;;;;;6.23;2.20;;;;;;;;;;5065693;28;20025;-76
2021/09/12 13:17:25;;;;;;;4.87;1.83;;;;;;;;;;5054911;28;20263;-76
2021/09/12 13:19:50;;;;;;;3.63;1.73;;;;;;;;;;5074262;28;20030;-76
2021/09/12 13:22:15;;;;;;;4.73;1.93;;;;;;;;;;5074280;28;20035;-76
2021/09/12 13:24:45;;;;;;;6.83;1.70;;;;;;;;;;5074232;28;20345;-75
2021/09/12 13:27:10;;;;;;;2.63;1.80;;;;;;;;;;5074944;28;20282;-75
2021/09/12 13:29:35;;;;;;;4.60;1.80;;;;;;;;;;5074128;28;20048;-76
2021/09/12 13:32:01;;;;;;;5.30;1.90;;;;;;;;;;5073439;28;20009;-75
2021/09/12 13:34:26;;;;;;;2.97;1.50;;;;;;;;;;5074505;28;20090;-77
2021/09/12 13:36:52;;;;;;;5.57;1.75;;;;;;;;;;5071995;28;20251;-71
2021/09/12 13:39:17;;;;;;;2.25;1.65;;;;;;;;;;5036951;28;20028;-71
2021/09/12 13:41:45;;;;;;;3.88;1.70;;;;;;;;;;5048361;28;20108;-76
2021/09/12 13:44:10;;;;;;;3.40;1.80;;;;;;;;;;5071397;28;20029;-78
2021/09/12 13:46:35;;;;;;;3.57;1.90;;;;;;;;;;5072664;28;20074;-76
2021/09/12 13:49:00;;;;;;;3.90;1.67;;;;;;;;;;5073702;28;20025;-76
2021/09/12 13:51:28;;;;;;;4.17;2.13;;;;;;;;;;5063695;28;20020;-72
2021/09/12 13:53:56;;;;;;;8.30;1.90;;;;;;;;;;5053774;28;20616;-73
2021/09/12 13:56:21;;;;;;;4.47;1.85;;;;;;;;;;5066091;28;20016;-73
2021/09/12 13:58:46;;;;;;;5.07;2.13;;;;;;;;;;5055405;28;20029;-74
2021/09/12 14:01:11;;;;;;;3.63;1.80;;;;;;;;;;5055512;28;20522;-77
2021/09/12 14:03:36;;;;;;;2.70;1.37;;;;;;;;;;5056157;28;20332;-77
2021/09/12 14:06:02;;;;;;;5.50;1.90;;;;;;;;;;5074127;28;20346;-80
2021/09/12 14:08:29;;;;;;;4.37;1.80;;;;;;;;;;5073234;28;20302;-71
2021/09/12 14:10:58;;;;;;;2.50;1.63;;;;;;;;;;5067180;28;20643;-75
2021/09/12 14:13:27;;;;;;;4.05;1.60;;;;;;;;;;5055311;28;20024;-76
2021/09/12 14:15:53;;;;;;;4.03;1.60;;;;;;;;;;5073519;28;20016;-83
2021/09/12 14:18:18;;;;;;;3.17;1.45;;;;;;;;;;5073262;28;20507;-78
2021/09/12 14:20:43;;;;;;;3.33;1.60;;;;;;;;;;5073695;28;20024;-78
2021/09/12 14:23:09;;;;;;;4.47;1.53;;;;;;;;;;5055887;28;20246;-80
2021/09/12 14:25:34;;;;;;;5.07;1.80;;;;;;;;;;5072944;28;20303;-72
2021/09/12 14:27:59;;;;;;;3.47;1.50;;;;;;;;;;5073668;28;20247;-83
2021/09/12 14:30:24;;;;;;;2.80;1.40;;;;;;;;;;5073106;28;20283;-78
2021/09/12 14:32:50;;;;;;;3.97;1.63;;;;;;;;;;5073369;28;20242;-73
2021/09/12 14:35:15;;;;;;;3.30;1.50;;;;;;;;;;5072366;28;20392;-72
2021/09/12 14:37:41;;;;;;;5.17;1.47;;;;;;;;;;5073368;28;20035;-73
2021/09/12 14:40:06;;;;;;;3.88;1.40;;;;;;;;;;5063984;28;20358;-72